Madison, Florida
Current Conditions -  °F | °C
As of 3:53 PM on Friday 24 Oct 2014 (Local Time) from KVLD Reporting Station
Clear Clear  
Wind Chill: 77°   Ceiling: Unl
Heat Index: 78°   Visibility: 10mi
Dew Point: 42°   Wind: 0mph
Humidity: 29%   Direction: NA
Pressure: 29.97"   Gusts: NA
Location:  30.47°N, 83.42°W
Report Text: KVLD 241953Z 00000KT 10SM CLR 25/06 A2997 RMK AO2 SLP154 T02500056
Loading
Personal Weather Stations






























Interactive Weather Map New forecast layout! Learn more

10-Day Weather Forecast

Advertisements
Track Severe Weather on mobile